Terminal Aerodrome Forecast
Issued by NWS

Home | Current Version | Previous Version | Text Only | Print | Product List | Glossary On
Versions: 1 2 3 4 5 6 7 8 9 10 11 12 13 14 15 16 17 18 19
756
FTUS43 KPAH 050520
TAFCGI
TAF
KCGI 050520Z 0506/0606 VRB03KT P6SM OVC022
     FM050800 00000KT 2SM BR SCT022
      TEMPO 0508/0512 3/4SM BR
     FM051500 09007KT P6SM SCT025
     FM060000 08005KT P6SM SCT015 OVC025=

USA.gov is the U.S. government's official web portal to all federal, state and local government web resources and services.